Time;durP1;ratioP1;P1;durP2;ratioP2;P2;SDS_P1;SDS_P2;PMS_P1;PMS_P2;Temp;Humidity;BMP_temperature;BMP_pressure;BME280_temperature;BME280_humidity;BME280_pressure;Samples;Min_cycle;Max_cycle;Signal;HPM_P1;HPM_P2
2022/11/12 05:30:34;;;;;;;17.83;10.10;;;10.90;89.10;;;;;;5821072;23;20468;-79
2022/11/12 05:33:00;;;;;;;19.33;11.02;;;10.90;89.00;;;;;;4913144;29;20028;-78
2022/11/12 05:35:25;;;;;;;17.00;9.55;;;10.90;88.90;;;;;;4919400;29;20044;-79
2022/11/12 05:37:51;;;;;;;14.10;9.82;;;10.90;89.00;;;;;;4914001;29;20029;-79
2022/11/12 05:40:16;;;;;;;14.73;9.65;;;10.90;89.10;;;;;;4939698;29;20032;-79
2022/11/12 05:42:45;;;;;;;16.77;10.20;;;10.90;89.20;;;;;;4928693;29;20116;-79
2022/11/12 05:45:10;;;;;;;19.45;10.07;;;10.90;89.10;;;;;;4900679;29;20055;-79
2022/11/12 05:47:36;;;;;;;17.63;9.70;;;10.90;89.20;;;;;;4901847;29;20033;-79
2022/11/12 05:50:02;;;;;;;17.02;9.68;;;10.90;89.20;;;;;;4901424;29;20032;-79
2022/11/12 05:52:27;;;;;;;14.48;8.65;;;10.90;89.00;;;;;;4906947;29;20107;-79
2022/11/12 05:54:53;;;;;;;14.40;9.85;;;10.90;89.10;;;;;;4920601;29;20039;-80
2022/11/12 05:57:19;;;;;;;11.93;7.90;;;10.90;89.10;;;;;;4920458;29;20033;-80
2022/11/12 05:59:44;;;;;;;16.38;9.82;;;10.80;89.20;;;;;;4909121;29;20072;-80
2022/11/12 06:02:10;;;;;;;14.68;8.98;;;10.80;89.40;;;;;;4902588;29;20032;-80
2022/11/12 06:04:35;;;;;;;14.77;9.82;;;10.80;89.30;;;;;;4911942;29;20032;-80
2022/11/12 06:07:02;;;;;;;16.77;10.48;;;10.90;89.20;;;;;;4919222;29;20024;-79
2022/11/12 06:09:28;;;;;;;17.10;10.27;;;10.90;89.10;;;;;;4913591;29;20028;-79
2022/11/12 06:11:54;;;;;;;15.27;9.90;;;10.80;89.20;;;;;;4920545;29;20484;-79
2022/11/12 06:14:19;;;;;;;18.55;9.75;;;10.80;89.30;;;;;;4920448;29;20033;-79
2022/11/12 06:16:48;;;;;;;11.15;6.22;;;10.80;89.40;;;;;;4903911;29;20377;-79
2022/11/12 06:19:13;;;;;;;19.85;10.05;;;10.80;89.00;;;;;;4904436;29;20031;-80
2022/11/12 06:21:39;;;;;;;16.15;9.25;;;10.80;89.30;;;;;;4920531;29;20436;-79
2022/11/12 06:24:05;;;;;;;17.33;9.05;;;10.70;89.50;;;;;;4905013;29;20084;-79
2022/11/12 06:26:30;;;;;;;17.65;11.43;;;10.70;89.40;;;;;;4901554;29;20083;-79
2022/11/12 06:28:56;;;;;;;19.27;11.55;;;10.70;89.50;;;;;;4901098;29;20035;-80
2022/11/12 06:31:22;;;;;;;19.10;11.52;;;10.70;89.50;;;;;;4901387;29;20189;-79
2022/11/12 06:34:00;;;;;;;17.88;9.57;;;10.70;89.40;;;;;;4911301;29;20032;-79
2022/11/12 06:36:25;;;;;;;18.10;10.38;;;10.70;89.40;;;;;;4918013;29;20032;-79
2022/11/12 06:38:51;;;;;;;20.40;11.77;;;10.70;89.40;;;;;;4904770;29;20397;-79
2022/11/12 06:41:17;;;;;;;13.55;9.10;;;10.70;89.20;;;;;;4939245;29;20031;-79
2022/11/12 06:43:42;;;;;;;10.98;6.82;;;10.70;89.50;;;;;;4938898;29;20106;-80
2022/11/12 06:46:13;;;;;;;17.20;9.38;;;10.70;89.40;;;;;;4936907;29;20452;-80
2022/11/12 06:48:39;;;;;;;15.23;8.82;;;10.60;89.50;;;;;;4902408;29;20034;-80
2022/11/12 06:51:17;;;;;;;16.63;9.48;;;10.60;89.60;;;;;;4904382;29;20404;-85
2022/11/12 06:53:43;;;;;;;17.13;9.23;;;10.70;89.70;;;;;;4895881;29;20072;-79
2022/11/12 06:56:09;;;;;;;16.33;9.50;;;10.70;89.30;;;;;;4904375;29;20028;-78
2022/11/12 06:58:35;;;;;;;14.50;9.15;;;10.70;89.50;;;;;;4938610;29;20036;-77
2022/11/12 07:01:09;;;;;;;15.45;8.85;;;10.70;89.50;;;;;;4907075;29;20036;-80
2022/11/12 07:03:35;;;;;;;18.10;10.65;;;10.70;89.30;;;;;;4900554;29;20032;-80
2022/11/12 07:06:19;;;;;;;12.95;8.02;;;10.70;89.40;;;;;;4900560;29;20032;-80
2022/11/12 07:08:48;;;;;;;13.43;9.00;;;10.70;89.30;;;;;;4900368;29;20041;-79
2022/11/12 07:11:14;;;;;;;15.18;9.57;;;10.70;89.50;;;;;;4910158;29;20865;-82
2022/11/12 07:13:47;;;;;;;18.00;8.40;;;10.60;89.40;;;;;;4918938;29;20028;-79
2022/11/12 07:16:17;;;;;;;12.80;8.35;;;10.70;89.60;;;;;;4916683;29;20059;-87
2022/11/12 07:18:44;;;;;;;16.77;9.20;;;10.70;89.70;;;;;;4917118;29;20048;-80
2022/11/12 07:21:15;;;;;;;13.98;9.18;;;10.70;89.80;;;;;;4916744;29;20032;-80
2022/11/12 07:23:41;;;;;;;21.20;10.18;;;10.70;89.40;;;;;;4915792;29;20170;-89
2022/11/12 07:26:24;;;;;;;16.75;10.02;;;10.80;89.60;;;;;;4917249;29;20051;-80
2022/11/12 07:28:51;;;;;;;18.70;11.20;;;10.80;89.50;;;;;;4896016;29;20024;-87
2022/11/12 07:31:19;;;;;;;19.77;9.75;;;10.80;89.30;;;;;;4915118;29;20048;-83
2022/11/12 07:33:47;;;;;;;16.98;9.82;;;10.90;89.30;;;;;;4917104;29;20511;-83
2022/11/12 07:36:15;;;;;;;12.88;8.80;;;10.80;89.10;;;;;;4918455;29;20462;-86
2022/11/12 07:38:42;;;;;;;17.35;10.50;;;10.80;89.50;;;;;;4899985;29;20680;-83
2022/11/12 07:41:11;;;;;;;17.95;10.57;;;10.90;89.40;;;;;;4902151;29;20059;-80
2022/11/12 07:43:38;;;;;;;18.08;9.48;;;10.90;89.30;;;;;;4900164;29;20063;-84
2022/11/12 07:46:06;;;;;;;16.45;10.45;;;10.90;89.30;;;;;;4907539;29;20036;-82
2022/11/12 07:48:32;;;;;;;16.42;9.35;;;10.90;89.40;;;;;;4911893;29;20025;-88
2022/11/12 07:51:25;;;;;;;18.08;10.30;;;11.00;89.30;;;;;;4918091;29;20389;-80
2022/11/12 07:53:53;;;;;;;12.02;7.70;;;11.00;89.30;;;;;;4905056;29;20979;-85
2022/11/12 07:56:21;;;;;;;15.80;9.43;;;11.00;89.20;;;;;;4900099;29;20032;-82
2022/11/12 07:58:49;;;;;;;14.95;9.75;;;11.00;89.30;;;;;;4909437;29;20073;-83
2022/11/12 08:01:34;;;;;;;11.85;7.90;;;11.00;89.40;;;;;;4900092;29;20036;-83
2022/11/12 08:04:01;;;;;;;18.25;8.57;;;11.00;89.30;;;;;;4915344;29;20408;-82
2022/11/12 08:06:29;;;;;;;12.18;8.55;;;11.10;89.40;;;;;;4909147;29;20032;-83
2022/11/12 08:08:55;;;;;;;16.58;10.15;;;11.10;89.40;;;;;;4909515;29;20091;-77
2022/11/12 08:11:22;;;;;;;13.38;7.97;;;11.10;89.30;;;;;;4907523;29;20408;-78
2022/11/12 08:13:48;;;;;;;14.73;8.27;;;11.10;89.30;;;;;;4894743;29;20100;-78
2022/11/12 08:16:14;;;;;;;12.40;8.18;;;11.10;89.30;;;;;;4889871;29;20131;-78
2022/11/12 08:18:40;;;;;;;15.50;9.10;;;11.20;89.40;;;;;;4928834;29;20063;-79
2022/11/12 08:21:08;;;;;;;11.00;8.43;;;11.20;89.30;;;;;;4915517;29;20044;-79
2022/11/12 08:23:34;;;;;;;16.02;8.88;;;11.20;89.20;;;;;;4916255;29;20072;-78
2022/11/12 08:26:01;;;;;;;10.02;7.03;;;11.20;89.40;;;;;;4913303;29;20040;-78
2022/11/12 08:28:28;;;;;;;15.80;8.75;;;11.20;89.30;;;;;;4903148;29;20035;-78
2022/11/12 08:30:55;;;;;;;13.57;8.02;;;11.30;89.50;;;;;;4921320;29;20048;-78
2022/11/12 08:33:21;;;;;;;17.63;8.55;;;11.30;89.30;;;;;;4911065;29;20031;-78
2022/11/12 08:35:48;;;;;;;15.75;9.70;;;11.40;89.20;;;;;;4910985;29;20037;-78
2022/11/12 08:38:13;;;;;;;13.60;8.77;;;11.50;89.20;;;;;;4922154;29;20028;-77
2022/11/12 08:40:39;;;;;;;12.30;8.60;;;11.50;89.10;;;;;;4918489;29;20040;-79
2022/11/12 08:43:09;;;;;;;16.58;10.15;;;11.60;89.00;;;;;;4918640;29;20060;-78
2022/11/12 08:45:39;;;;;;;14.07;7.70;;;11.60;89.00;;;;;;4908837;29;20039;-78
2022/11/12 08:48:12;;;;;;;16.17;10.27;;;11.60;89.00;;;;;;4915713;29;20028;-78
2022/11/12 08:50:39;;;;;;;14.65;8.88;;;11.70;89.00;;;;;;4912728;29;20222;-79
2022/11/12 08:53:07;;;;;;;16.10;9.63;;;11.70;89.00;;;;;;4897435;29;20028;-78
2022/11/12 08:55:33;;;;;;;14.65;9.25;;;11.80;88.80;;;;;;4915417;29;20027;-78
2022/11/12 08:58:02;;;;;;;12.30;8.18;;;11.90;88.80;;;;;;4916878;29;20036;-78
2022/11/12 09:00:35;;;;;;;14.20;9.25;;;11.90;88.80;;;;;;4918520;29;20047;-77
2022/11/12 09:03:03;;;;;;;15.15;9.88;;;12.00;88.70;;;;;;4916231;29;20488;-78
2022/11/12 09:05:34;;;;;;;15.30;9.38;;;12.10;88.70;;;;;;4913786;29;20083;-78
2022/11/12 09:08:04;;;;;;;18.67;9.13;;;12.20;88.50;;;;;;4915540;29;20032;-79
2022/11/12 09:10:30;;;;;;;13.32;7.43;;;12.20;88.50;;;;;;4913829;29;20071;-78
2022/11/12 09:12:56;;;;;;;12.65;6.45;;;12.30;88.50;;;;;;4918625;29;20028;-78
2022/11/12 09:15:23;;;;;;;14.65;9.48;;;12.30;88.40;;;;;;4904006;29;20403;-78
2022/11/12 09:18:04;;;;;;;15.50;8.50;;;12.40;88.20;;;;;;4916534;29;20028;-79
2022/11/12 09:20:30;;;;;;;18.33;9.13;;;12.50;88.30;;;;;;4917430;29;20047;-79
2022/11/12 09:23:06;;;;;;;9.43;7.38;;;12.70;88.20;;;;;;4919697;29;20385;-78
2022/11/12 09:25:32;;;;;;;12.50;8.05;;;12.70;88.10;;;;;;4914411;29;20028;-78
2022/11/12 09:28:11;;;;;;;12.25;7.80;;;12.80;87.80;;;;;;4920325;29;20488;-78
2022/11/12 09:30:42;;;;;;;13.98;9.40;;;12.80;87.80;;;;;;4897285;29;20052;-78
2022/11/12 09:33:07;;;;;;;;;;;12.90;87.70;;;;;;4912894;29;20025;-77
2022/11/12 09:35:33;;;;;;;13.40;8.13;;;13.00;87.70;;;;;;4909831;29;19926;-77
2022/11/12 09:37:59;;;;;;;16.67;9.13;;;13.00;87.60;;;;;;4901508;29;20036;-78
2022/11/12 09:40:38;;;;;;;13.80;8.52;;;13.10;87.40;;;;;;4901076;29;20221;-78
2022/11/12 09:43:15;;;;;;;12.18;8.18;;;13.20;87.50;;;;;;4913262;29;20036;-78
2022/11/12 09:45:41;;;;;;;11.02;7.70;;;13.20;87.30;;;;;;4917492;29;20031;-79
2022/11/12 09:48:10;;;;;;;11.50;6.97;;;13.20;87.40;;;;;;4918038;29;20032;-77
2022/11/12 09:50:41;;;;;;;11.48;7.93;;;13.30;87.10;;;;;;4903537;29;20027;-78
2022/11/12 09:53:33;;;;;;;10.10;7.47;;;13.40;87.10;;;;;;4915177;29;20056;-78
2022/11/12 09:56:00;;;;;;;13.75;8.98;;;13.50;87.20;;;;;;4933214;29;20060;-78
2022/11/12 09:58:26;;;;;;;13.38;8.55;;;13.50;86.90;;;;;;4920995;29;20567;-77
2022/11/12 10:00:55;;;;;;;12.38;7.90;;;13.70;86.80;;;;;;4914102;29;20051;-77
2022/11/12 10:03:48;;;;;;;11.18;7.63;;;13.70;86.60;;;;;;4918244;29;20036;-77
2022/11/12 10:06:28;;;;;;;11.10;6.50;;;13.70;86.50;;;;;;4907529;29;20115;-77
2022/11/12 10:09:07;;;;;;;9.05;6.55;;;13.80;86.20;;;;;;4918386;29;20441;-77
2022/11/12 10:14:39;;;;;;;9.30;6.75;;;13.90;86.00;;;;;;4909824;29;20080;-77
2022/11/12 10:17:07;;;;;;;11.20;7.45;;;13.90;85.70;;;;;;4918251;29;20032;-78
2022/11/12 10:19:51;;;;;;;11.05;7.40;;;14.00;86.10;;;;;;4914397;29;20080;-77
2022/11/12 10:22:32;;;;;;;11.68;7.22;;;14.10;85.80;;;;;;4919470;29;20027;-78
2022/11/12 10:25:14;;;;;;;13.43;6.45;;;14.10;85.70;;;;;;4915575;29;20618;-77
2022/11/12 10:27:41;;;;;;;10.57;6.35;;;14.20;85.70;;;;;;4919030;29;20027;-77
2022/11/12 10:30:18;;;;;;;13.07;7.47;;;14.20;85.60;;;;;;4894043;29;20056;-78
2022/11/12 10:32:45;;;;;;;10.82;6.80;;;14.30;85.40;;;;;;4901445;29;20032;-77
2022/11/12 10:35:16;;;;;;;8.73;6.68;;;14.30;85.40;;;;;;4907641;29;20541;-77
2022/11/12 10:37:46;;;;;;;;;;;14.30;85.20;;;;;;4916025;29;20100;-78
2022/11/12 10:40:24;;;;;;;9.27;6.72;;;14.40;85.20;;;;;;4917861;29;19911;-78
2022/11/12 10:43:01;;;;;;;9.73;6.53;;;14.40;84.90;;;;;;4914678;29;20510;-77
2022/11/12 10:45:27;;;;;;;8.90;5.75;;;14.50;85.00;;;;;;4912872;29;20079;-78
2022/11/12 10:47:53;;;;;;;10.27;7.18;;;14.50;84.70;;;;;;4912878;29;20028;-77
2022/11/12 10:50:30;;;;;;;9.15;6.57;;;14.60;84.70;;;;;;4909113;29;20035;-83
2022/11/12 10:53:03;;;;;;;11.25;6.18;;;14.60;84.60;;;;;;4903804;29;20033;-86
2022/11/12 10:55:35;;;;;;;10.23;6.57;;;14.60;84.60;;;;;;4901062;29;20036;-77
2022/11/12 10:58:10;;;;;;;9.35;5.95;;;14.70;84.70;;;;;;4902932;29;20043;-82
2022/11/12 11:00:50;;;;;;;11.13;6.97;;;14.80;84.50;;;;;;4899515;29;20040;-82
2022/11/12 11:03:34;;;;;;;9.48;4.97;;;14.90;84.60;;;;;;4910811;29;20060;-86
2022/11/12 11:06:20;;;;;;;13.43;5.18;;;14.90;84.10;;;;;;4902006;29;20456;-82
2022/11/12 11:08:51;;;;;;;10.13;6.20;;;15.00;84.10;;;;;;4915139;29;20032;-82
2022/11/12 11:11:21;;;;;;;10.50;6.55;;;15.00;84.10;;;;;;4918212;29;20040;-79
2022/11/12 11:13:49;;;;;;;10.38;6.78;;;15.10;84.20;;;;;;4902179;29;20449;-90
2022/11/12 11:16:24;;;;;;;9.32;6.00;;;15.10;84.10;;;;;;4904991;29;20072;-82
2022/11/12 11:19:04;;;;;;;10.80;5.57;;;15.10;84.10;;;;;;4893626;29;20127;-77
2022/11/12 11:21:44;;;;;;;13.20;5.97;;;15.20;84.10;;;;;;4918525;29;20583;-79
2022/11/12 11:24:32;;;;;;;9.57;5.32;;;15.30;84.00;;;;;;4902881;29;20039;-89
2022/11/12 11:27:16;;;;;;;8.45;5.95;;;15.30;83.80;;;;;;4918370;29;20071;-84
2022/11/12 11:30:04;;;;;;;10.60;5.90;;;15.30;83.80;;;;;;4904157;29;20040;-83
2022/11/12 11:33:01;;;;;;;8.75;5.63;;;15.40;83.70;;;;;;4911889;29;20052;-85
2022/11/12 11:35:38;;;;;;;9.25;6.07;;;15.50;83.50;;;;;;4905437;29;20073;-86
2022/11/12 11:38:19;;;;;;;9.93;6.45;;;15.50;83.50;;;;;;4902168;29;20028;-87
2022/11/12 11:41:03;;;;;;;9.93;5.85;;;15.50;83.40;;;;;;4914663;29;20024;-84
2022/11/12 11:43:35;;;;;;;17.83;9.52;;;15.60;83.40;;;;;;4901712;29;20028;-85
2022/11/12 11:46:09;;;;;;;8.35;5.95;;;15.60;83.60;;;;;;4901573;29;20062;-85
2022/11/12 11:48:52;;;;;;;9.30;5.72;;;15.70;83.50;;;;;;4910164;29;20039;-81
2022/11/12 11:51:30;;;;;;;8.98;6.00;;;15.70;83.50;;;;;;4892155;29;20028;-80
2022/11/12 11:54:12;;;;;;;8.82;5.78;;;15.80;83.10;;;;;;4924378;29;20036;-86
2022/11/12 11:56:43;;;;;;;9.80;5.70;;;15.80;83.30;;;;;;4944381;29;20047;-76
2022/11/12 11:59:32;;;;;;;9.45;6.57;;;15.80;83.20;;;;;;4923551;29;20024;-83
2022/11/12 12:02:40;;;;;;;11.07;6.57;;;15.90;83.00;;;;;;4904620;29;20032;-90
2022/11/12 12:05:29;;;;;;;11.50;6.82;;;15.90;83.10;;;;;;4905151;29;20433;-88
2022/11/12 12:08:00;;;;;;;9.57;6.00;;;16.00;83.00;;;;;;4904654;29;20040;-86
2022/11/12 12:10:41;;;;;;;11.10;6.95;;;16.00;83.00;;;;;;4917655;29;20507;-81
2022/11/12 12:13:18;;;;;;;9.45;5.85;;;16.10;82.80;;;;;;4894407;29;20400;-87
2022/11/12 12:15:50;;;;;;;9.27;5.82;;;16.10;82.90;;;;;;4922907;29;20029;-80
2022/11/12 12:18:47;;;;;;;9.35;5.80;;;16.10;83.00;;;;;;4911355;29;20028;-83
2022/11/12 12:21:15;;;;;;;9.63;5.97;;;16.20;82.80;;;;;;4913202;29;20024;-84
2022/11/12 12:24:03;;;;;;;15.98;6.78;;;16.20;82.80;;;;;;4922624;29;20491;-83
2022/11/12 12:26:46;;;;;;;9.32;6.05;;;16.30;82.60;;;;;;4919919;29;20036;-77
2022/11/12 12:29:38;;;;;;;10.27;6.32;;;16.40;82.50;;;;;;4905550;29;20058;-79
2022/11/12 12:32:10;;;;;;;9.10;6.13;;;16.40;82.40;;;;;;4906645;29;20052;-77
2022/11/12 12:34:40;;;;;;;10.98;6.03;;;16.40;82.30;;;;;;4912520;29;20066;-77
2022/11/12 12:37:25;;;;;;;8.40;5.57;;;16.50;82.60;;;;;;4920571;29;20036;-80
2022/11/12 12:39:58;;;;;;;11.20;5.72;;;16.50;82.50;;;;;;4909344;29;20080;-81
2022/11/12 12:42:40;;;;;;;9.18;6.03;;;16.60;82.50;;;;;;4911475;29;20090;-77
2022/11/12 12:45:42;;;;;;;9.43;5.85;;;16.70;82.40;;;;;;4911356;29;20769;-77
2022/11/12 12:48:15;;;;;;;9.07;5.32;;;16.60;82.50;;;;;;4914587;29;20064;-76
2022/11/12 12:50:42;;;;;;;9.07;5.97;;;16.70;82.00;;;;;;4912687;29;20499;-77
2022/11/12 12:53:26;;;;;;;9.90;6.57;;;16.80;82.20;;;;;;4918357;29;20036;-77
2022/11/12 12:55:54;;;;;;;8.95;5.85;;;16.80;81.70;;;;;;4922254;29;20477;-77
2022/11/12 12:58:22;;;;;;;9.57;5.60;;;16.80;82.00;;;;;;4918275;29;20024;-77
2022/11/12 13:00:51;;;;;;;10.13;6.05;;;16.80;82.20;;;;;;4912062;29;20481;-77
2022/11/12 13:03:41;;;;;;;10.73;6.50;;;16.80;81.90;;;;;;4910982;29;20076;-77
2022/11/12 13:06:15;;;;;;;13.40;6.90;;;16.80;81.90;;;;;;4910937;29;20062;-77
2022/11/12 13:08:41;;;;;;;11.25;7.20;;;16.90;82.10;;;;;;4902005;29;20029;-77
2022/11/12 13:11:07;;;;;;;9.93;6.72;;;16.90;81.80;;;;;;4916846;29;20035;-77
2022/11/12 13:13:35;;;;;;;7.70;5.60;;;17.00;81.80;;;;;;4914615;29;20036;-77
2022/11/12 13:16:02;;;;;;;8.77;6.15;;;17.00;81.90;;;;;;4913318;29;20115;-77
2022/11/12 13:18:37;;;;;;;9.30;5.18;;;17.00;81.90;;;;;;4901219;29;20103;-78
2022/11/12 13:21:07;;;;;;;10.30;6.30;;;17.00;81.70;;;;;;4916665;29;20079;-78
2022/11/12 13:26:45;;;;;;;9.07;5.55;;;17.10;81.60;;;;;;4917821;29;20039;-77
2022/11/12 13:29:26;;;;;;;9.05;6.03;;;17.20;81.70;;;;;;4915209;29;20028;-77
2022/11/12 13:32:27;;;;;;;10.02;6.35;;;17.20;81.60;;;;;;4914989;29;20052;-78
2022/11/12 13:35:21;;;;;;;10.88;6.03;;;17.20;81.50;;;;;;4917943;29;20460;-78
2022/11/12 13:38:03;;;;;;;10.65;6.07;;;17.30;81.10;;;;;;4923790;29;20060;-78
2022/11/12 13:40:29;;;;;;;9.38;5.80;;;17.30;81.20;;;;;;4917631;29;20032;-78
2022/11/12 13:43:05;;;;;;;8.75;5.80;;;17.30;81.20;;;;;;4897876;29;20028;-77
2022/11/12 13:45:37;;;;;;;7.93;4.93;;;17.30;81.40;;;;;;4899398;29;20154;-78
2022/11/12 13:48:08;;;;;;;10.25;6.03;;;17.30;81.30;;;;;;4912246;29;20036;-78
2022/11/12 13:50:33;;;;;;;9.73;5.43;;;17.30;81.40;;;;;;4914988;29;20104;-78
2022/11/12 13:53:00;;;;;;;12.13;5.90;;;17.40;81.20;;;;;;4906703;29;20068;-78
2022/11/12 13:55:25;;;;;;;12.88;6.00;;;17.40;81.30;;;;;;4905199;29;20472;-78
2022/11/12 13:57:52;;;;;;;11.35;6.40;;;17.40;81.10;;;;;;4917893;29;20043;-78
2022/11/12 14:00:21;;;;;;;6.43;5.32;;;17.40;81.00;;;;;;4901975;29;20076;-78
2022/11/12 14:02:54;;;;;;;8.85;5.65;;;17.40;81.10;;;;;;4916705;29;20036;-78
2022/11/12 14:05:24;;;;;;;7.40;5.63;;;17.40;80.90;;;;;;4919875;29;20028;-78
2022/11/12 14:08:14;;;;;;;10.15;5.40;;;17.40;81.00;;;;;;4911260;29;20088;-77
2022/11/12 14:10:46;;;;;;;8.77;5.07;;;17.40;81.00;;;;;;4906653;29;20036;-77
2022/11/12 14:13:46;;;;;;;8.98;5.38;;;17.40;80.70;;;;;;4916617;29;20036;-78
2022/11/12 14:16:32;;;;;;;7.40;4.87;;;17.50;81.10;;;;;;4899886;29;20033;-77
2022/11/12 14:19:22;;;;;;;7.63;4.93;;;17.40;80.90;;;;;;4907858;29;20571;-78
2022/11/12 14:21:57;;;;;;;;;;;17.40;81.10;;;;;;4920580;29;20036;-76
2022/11/12 14:24:23;;;;;;;10.30;5.13;;;17.50;81.20;;;;;;4918437;29;19969;-78
2022/11/12 14:26:49;;;;;;;8.50;4.93;;;17.50;81.10;;;;;;4901761;29;20032;-77
2022/11/12 14:29:18;;;;;;;8.38;5.18;;;17.50;81.10;;;;;;4902481;29;20640;-77
2022/11/12 14:31:45;;;;;;;9.77;5.95;;;17.50;81.10;;;;;;4918624;29;20062;-77
2022/11/12 14:34:25;;;;;;;10.50;6.03;;;17.50;80.80;;;;;;4911510;29;20040;-77
2022/11/12 14:36:54;;;;;;;12.40;10.63;;;17.50;80.90;;;;;;4901266;29;20057;-77
2022/11/12 14:39:21;;;;;;;7.90;5.30;;;17.50;80.80;;;;;;4910360;29;20032;-77
2022/11/12 14:41:49;;;;;;;7.65;5.70;;;17.50;81.10;;;;;;4907732;29;20024;-78
2022/11/12 14:44:35;;;;;;;6.53;4.82;;;17.50;81.10;;;;;;4909198;29;20035;-78
2022/11/12 14:47:01;;;;;;;10.65;6.20;;;17.50;81.40;;;;;;4899635;29;20033;-78
2022/11/12 14:49:41;;;;;;;6.28;5.35;;;17.50;81.30;;;;;;4910633;29;20025;-78
2022/11/12 14:52:18;;;;;;;12.20;6.23;;;17.50;81.30;;;;;;4919454;29;20080;-78
2022/11/12 14:54:49;;;;;;;10.23;6.13;;;17.50;81.20;;;;;;4919619;29;20036;-78
2022/11/12 14:57:23;;;;;;;9.40;6.50;;;17.50;81.20;;;;;;4899697;29;20040;-78
2022/11/12 14:59:49;;;;;;;11.25;5.53;;;17.50;81.20;;;;;;4912578;29;20028;-77
2022/11/12 15:02:20;;;;;;;8.70;5.00;;;17.40;81.20;;;;;;4902780;29;20092;-77
2022/11/12 15:04:57;;;;;;;10.27;6.00;;;17.40;81.40;;;;;;4902897;29;20070;-77
2022/11/12 15:07:31;;;;;;;8.77;5.72;;;17.50;81.50;;;;;;4905241;29;20119;-77
2022/11/12 15:09:57;;;;;;;11.63;6.30;;;17.40;81.60;;;;;;4912889;29;20407;-78
2022/11/12 15:12:25;;;;;;;10.55;5.60;;;17.40;81.70;;;;;;4901267;29;20039;-78
2022/11/12 15:14:52;;;;;;;8.45;5.63;;;17.40;81.60;;;;;;4891083;29;20033;-82
2022/11/12 15:17:38;;;;;;;8.77;5.75;;;17.30;81.60;;;;;;4907509;29;20496;-78
2022/11/12 15:20:15;;;;;;;11.18;6.45;;;17.30;81.50;;;;;;4901136;29;20504;-79
2022/11/12 15:22:48;;;;;;;8.57;6.60;;;17.30;81.40;;;;;;4901900;29;20068;-80
2022/11/12 15:25:30;;;;;;;12.85;6.85;;;17.30;81.60;;;;;;4918192;29;20095;-80
2022/11/12 15:28:20;;;;;;;11.35;6.80;;;17.30;81.70;;;;;;4902113;29;20024;-80
2022/11/12 15:31:06;;;;;;;;;;;17.20;81.70;;;;;;4910386;29;20083;-79
2022/11/12 15:33:32;;;;;;;10.35;5.90;;;17.30;81.80;;;;;;4900164;29;19915;-80
2022/11/12 15:35:59;;;;;;;10.55;6.10;;;17.20;81.90;;;;;;4918833;29;20087;-80
2022/11/12 15:38:36;;;;;;;9.15;5.75;;;17.20;82.10;;;;;;4905449;29;20024;-80
2022/11/12 15:41:03;;;;;;;11.38;6.43;;;17.20;82.20;;;;;;4900049;29;20036;-80
2022/11/12 15:43:34;;;;;;;7.85;6.13;;;17.10;82.20;;;;;;4900487;29;20040;-80
2022/11/12 15:46:00;;;;;;;8.82;5.72;;;17.10;82.20;;;;;;4903235;29;20099;-79
2022/11/12 15:48:25;;;;;;;10.18;6.28;;;17.10;82.30;;;;;;4918532;29;20082;-80
2022/11/12 15:50:51;;;;;;;9.20;6.10;;;17.10;82.30;;;;;;4904406;29;20040;-80
2022/11/12 15:53:17;;;;;;;11.00;6.63;;;17.00;82.40;;;;;;4912472;29;20036;-79
2022/11/12 15:55:45;;;;;;;13.45;6.47;;;16.90;82.60;;;;;;4902841;29;20112;-80
2022/11/12 15:58:19;;;;;;;10.20;5.60;;;16.90;82.70;;;;;;4899734;29;20028;-80
2022/11/12 16:00:45;;;;;;;9.45;5.85;;;16.90;82.70;;;;;;4915961;29;20161;-80
2022/11/12 16:03:16;;;;;;;9.70;5.40;;;16.90;82.90;;;;;;4919196;29;20496;-79
2022/11/12 16:05:43;;;;;;;9.30;5.65;;;16.80;83.10;;;;;;4918401;29;20538;-82
2022/11/12 16:08:09;;;;;;;10.07;7.05;;;16.80;83.20;;;;;;4911265;29;20140;-79
2022/11/12 16:10:35;;;;;;;12.48;7.22;;;16.80;83.30;;;;;;4918981;29;20033;-80
2022/11/12 16:13:02;;;;;;;13.65;6.05;;;16.70;83.50;;;;;;4900592;29;20076;-83
2022/11/12 16:15:28;;;;;;;14.52;6.85;;;16.70;83.70;;;;;;4888724;29;20024;-84
2022/11/12 16:17:55;;;;;;;12.07;7.05;;;16.70;83.80;;;;;;4900209;29;20524;-82
2022/11/12 16:20:32;;;;;;;12.50;5.93;;;16.60;83.80;;;;;;4894622;29;20028;-80
2022/11/12 16:22:58;;;;;;;9.43;5.80;;;16.60;84.00;;;;;;4912747;29;20067;-81
2022/11/12 16:25:28;;;;;;;12.10;6.50;;;16.50;84.00;;;;;;4906705;29;20028;-82
2022/11/12 16:27:55;;;;;;;8.82;6.10;;;16.50;84.20;;;;;;4883451;29;20036;-83
2022/11/12 16:30:23;;;;;;;9.50;6.10;;;16.40;84.20;;;;;;4908707;29;20496;-83
2022/11/12 16:32:49;;;;;;;9.23;6.03;;;16.40;84.20;;;;;;4907484;29;20069;-84
2022/11/12 16:35:16;;;;;;;12.68;6.97;;;16.30;84.20;;;;;;4911745;29;20103;-78
2022/11/12 16:37:43;;;;;;;10.82;7.25;;;16.30;84.40;;;;;;4893063;29;20408;-79
2022/11/12 16:40:17;;;;;;;13.45;7.70;;;16.30;84.40;;;;;;4893877;29;20032;-83
2022/11/12 16:42:46;;;;;;;13.18;7.10;;;16.20;84.50;;;;;;4911238;29;20027;-80
2022/11/12 16:45:14;;;;;;;10.55;6.60;;;16.20;84.60;;;;;;4914593;29;20503;-83
2022/11/12 16:47:46;;;;;;;8.77;6.80;;;16.20;84.70;;;;;;4901067;29;20035;-87
2022/11/12 16:50:14;;;;;;;10.85;6.47;;;16.20;84.70;;;;;;4914831;29;20036;-82
2022/11/12 16:52:40;;;;;;;11.70;7.25;;;16.10;84.80;;;;;;4899930;29;20088;-80
2022/11/12 16:55:06;;;;;;;9.88;6.68;;;16.10;84.70;;;;;;4912840;29;20044;-83
2022/11/12 16:57:32;;;;;;;9.95;6.78;;;16.00;84.80;;;;;;4912730;29;20035;-83
2022/11/12 16:59:58;;;;;;;10.48;7.78;;;16.00;84.90;;;;;;4911287;29;20016;-84
2022/11/12 17:02:23;;;;;;;9.32;6.82;;;16.00;84.80;;;;;;4912761;29;20035;-84
2022/11/12 17:04:49;;;;;;;12.30;7.07;;;16.00;84.70;;;;;;4896334;29;20029;-84
2022/11/12 17:07:15;;;;;;;9.10;6.72;;;16.00;84.70;;;;;;4914681;29;20032;-89
2022/11/12 17:09:44;;;;;;;11.30;8.05;;;15.90;84.90;;;;;;4912143;29;20116;-82
2022/11/12 17:12:09;;;;;;;16.08;9.55;;;15.90;84.70;;;;;;4912479;29;20096;-84
2022/11/12 17:14:35;;;;;;;14.07;8.73;;;15.90;84.90;;;;;;4916495;29;20037;-89
2022/11/12 17:17:01;;;;;;;21.00;9.27;;;15.90;84.90;;;;;;4892951;29;20119;-80
2022/11/12 17:19:27;;;;;;;16.55;9.23;;;15.80;84.80;;;;;;4920084;29;20052;-87
2022/11/12 17:21:52;;;;;;;14.85;10.30;;;15.80;84.90;;;;;;4909100;29;20040;-87
2022/11/12 17:24:18;;;;;;;12.18;8.82;;;15.80;84.80;;;;;;4887960;29;20028;-86
2022/11/12 17:26:44;;;;;;;14.93;9.00;;;15.80;84.90;;;;;;4916749;29;20084;-85
2022/11/12 17:29:10;;;;;;;15.65;9.10;;;15.80;84.80;;;;;;4912970;29;20552;-86
2022/11/12 17:31:36;;;;;;;13.90;8.65;;;15.80;84.90;;;;;;4891954;29;20528;-85
2022/11/12 17:34:04;;;;;;;18.25;9.30;;;15.80;84.90;;;;;;4894411;29;20097;-85
2022/11/12 17:36:30;;;;;;;13.85;9.07;;;15.70;84.70;;;;;;4892475;29;20032;-85
2022/11/12 17:38:58;;;;;;;13.63;10.27;;;15.60;84.80;;;;;;4911265;29;20040;-86
2022/11/12 17:41:27;;;;;;;23.83;11.77;;;15.60;85.00;;;;;;4913814;29;20031;-88
2022/11/12 17:44:04;;;;;;;16.50;11.43;;;15.60;84.90;;;;;;4921162;29;20119;-88
2022/11/12 17:46:30;;;;;;;15.82;11.25;;;15.60;85.10;;;;;;4901001;29;20044;-87
2022/11/12 17:48:56;;;;;;;18.90;11.95;;;15.50;85.10;;;;;;4901330;29;20425;-88
2022/11/12 17:51:24;;;;;;;17.95;11.07;;;15.50;85.10;;;;;;4899898;29;20036;-86
2022/11/12 17:53:50;;;;;;;16.40;10.15;;;15.50;85.20;;;;;;4895722;29;20048;-83
2022/11/12 17:56:19;;;;;;;17.00;10.50;;;15.50;85.20;;;;;;4891893;29;20478;-85
2022/11/12 17:58:46;;;;;;;15.32;9.73;;;15.50;85.30;;;;;;4896734;29;20043;-87
2022/11/12 18:01:18;;;;;;;17.05;10.55;;;15.50;85.20;;;;;;4901345;29;20036;-87
2022/11/12 18:03:46;;;;;;;12.23;8.85;;;15.40;85.10;;;;;;4902001;29;20577;-82
2022/11/12 18:06:20;;;;;;;12.82;9.50;;;15.40;85.20;;;;;;4898809;29;20056;-81
2022/11/12 18:08:46;;;;;;;15.43;9.57;;;15.40;85.30;;;;;;4896459;29;20115;-83
2022/11/12 18:11:13;;;;;;;15.35;8.73;;;15.40;85.30;;;;;;4895804;29;20132;-82
2022/11/12 18:13:39;;;;;;;15.38;9.75;;;15.30;85.30;;;;;;4901382;29;20072;-84
2022/11/12 18:16:18;;;;;;;16.35;9.32;;;15.30;85.20;;;;;;4886214;29;20483;-87
2022/11/12 18:18:44;;;;;;;15.55;10.35;;;15.30;85.30;;;;;;4886938;29;20020;-85
2022/11/12 18:21:09;;;;;;;16.27;10.60;;;15.30;85.40;;;;;;4890322;29;20029;-86
2022/11/12 18:23:47;;;;;;;18.20;10.57;;;15.30;85.20;;;;;;4895108;29;20045;-75
2022/11/12 18:26:14;;;;;;;17.27;10.43;;;15.30;85.30;;;;;;4899056;29;20060;-79
2022/11/12 18:28:57;;;;;;;18.52;11.10;;;15.20;85.40;;;;;;4893304;29;20053;-78
2022/11/12 18:31:24;;;;;;;19.48;12.00;;;15.30;85.40;;;;;;4902708;29;20136;-77
2022/11/12 18:33:51;;;;;;;17.60;11.90;;;15.20;85.40;;;;;;4896547;29;20043;-78
2022/11/12 18:36:19;;;;;;;17.98;11.50;;;15.20;85.50;;;;;;4911498;29;20031;-77